createdAt,value
2017-10-22T00:01:57.539Z,12.47
2017-10-22T00:04:25.108Z,12.87
2017-10-22T00:06:53.576Z,11.90
2017-10-22T00:09:21.147Z,12.90
2017-10-22T00:11:49.483Z,11.30
2017-10-22T00:14:17.089Z,10.37
2017-10-22T00:16:46.397Z,11.40
2017-10-22T00:19:14.323Z,12.10
2017-10-22T00:21:41.884Z,11.50
2017-10-22T00:24:09.431Z,12.33
2017-10-22T00:26:37.038Z,13.73
2017-10-22T00:29:04.579Z,12.50
2017-10-22T00:31:32.921Z,12.37
2017-10-22T00:34:00.498Z,12.13
2017-10-22T00:36:28.102Z,12.50
2017-10-22T00:38:55.692Z,11.67
2017-10-22T00:41:23.237Z,13.50
2017-10-22T00:43:50.889Z,12.20
2017-10-22T00:46:18.550Z,12.77
2017-10-22T00:48:46.516Z,11.40
2017-10-22T00:51:14.356Z,13.57
2017-10-22T00:53:42.560Z,14.07
2017-10-22T00:56:10.156Z,13.43
2017-10-22T00:58:37.693Z,12.20
2017-10-22T01:01:05.996Z,12.53
2017-10-22T01:03:33.524Z,13.70
2017-10-22T01:06:01.090Z,12.40
2017-10-22T01:08:28.640Z,12.60
2017-10-22T01:10:56.185Z,13.90
2017-10-22T01:13:23.717Z,15.10
2017-10-22T01:15:51.248Z,13.77
2017-10-22T01:18:18.820Z,14.30
2017-10-22T01:20:46.883Z,14.90
2017-10-22T01:23:15.394Z,13.93
2017-10-22T01:25:42.997Z,13.87
2017-10-22T01:28:11.373Z,14.43
2017-10-22T01:30:38.909Z,16.90
2017-10-22T01:33:06.498Z,12.40
2017-10-22T01:35:34.152Z,14.87
2017-10-22T01:38:01.711Z,14.80
2017-10-22T01:40:29.284Z,14.23
2017-10-22T01:42:56.819Z,16.40
2017-10-22T01:45:24.367Z,15.13
2017-10-22T01:47:51.948Z,16.50
2017-10-22T01:50:20.412Z,13.93
2017-10-22T01:52:47.961Z,18.67
2017-10-22T01:55:16.427Z,17.07
2017-10-22T01:57:45.732Z,16.23
2017-10-22T02:00:13.309Z,14.47
2017-10-22T02:02:40.847Z,16.03
2017-10-22T02:05:09.389Z,19.67
2017-10-22T02:07:36.965Z,20.27
2017-10-22T02:10:04.544Z,18.77
2017-10-22T02:12:32.096Z,17.73
2017-10-22T02:15:00.548Z,12.80
2017-10-22T02:17:28.084Z,17.33
2017-10-22T02:19:55.624Z,17.20
2017-10-22T02:22:23.235Z,16.20
2017-10-22T02:24:50.781Z,13.40
2017-10-22T02:27:18.639Z,14.60
2017-10-22T02:29:46.917Z,16.13
2017-10-22T02:32:15.424Z,15.70
2017-10-22T02:34:42.971Z,15.30
2017-10-22T02:37:11.314Z,17.13
2017-10-22T02:39:38.849Z,15.63
2017-10-22T02:42:07.185Z,16.90
2017-10-22T02:44:34.725Z,15.77
2017-10-22T02:47:03.242Z,14.70
2017-10-22T02:49:30.805Z,14.47
2017-10-22T02:51:59.242Z,16.80
2017-10-22T02:54:27.562Z,16.77
2017-10-22T02:56:55.808Z,13.80
2017-10-22T02:59:24.116Z,21.00
2017-10-22T03:01:52.716Z,23.27
2017-10-22T03:04:20.365Z,22.97
2017-10-22T03:06:47.941Z,21.97
2017-10-22T03:09:17.273Z,19.90
2017-10-22T03:11:45.821Z,17.43
2017-10-22T03:14:14.290Z,17.37
2017-10-22T03:16:42.672Z,19.70
2017-10-22T03:19:10.215Z,21.33
2017-10-22T03:21:37.755Z,20.63
2017-10-22T03:24:06.123Z,19.40
2017-10-22T03:26:33.669Z,17.70
2017-10-22T03:29:02.121Z,17.40
2017-10-22T03:31:30.093Z,20.30
2017-10-22T03:33:57.629Z,18.40
2017-10-22T03:36:25.985Z,15.50
2017-10-22T03:38:53.585Z,18.50
2017-10-22T03:41:21.121Z,13.03
2017-10-22T03:43:48.668Z,18.13
2017-10-22T03:46:17.189Z,16.27
2017-10-22T03:48:44.869Z,15.43
2017-10-22T03:51:13.340Z,14.47
2017-10-22T03:53:40.887Z,14.13
2017-10-22T03:56:08.457Z,15.23
2017-10-22T03:58:36.780Z,14.07
2017-10-22T04:01:05.015Z,11.97
2017-10-22T04:03:32.558Z,12.40
2017-10-22T04:06:00.906Z,13.83
2017-10-22T04:08:28.448Z,11.70
2017-10-22T04:10:56.021Z,13.03
2017-10-22T04:13:23.560Z,12.43
2017-10-22T04:15:51.135Z,11.83
2017-10-22T04:18:18.677Z,11.70
2017-10-22T04:20:47.034Z,11.57
2017-10-22T04:23:15.417Z,12.13
2017-10-22T04:25:43.041Z,12.20
2017-10-22T04:28:10.588Z,10.50
2017-10-22T04:30:38.193Z,11.83
2017-10-22T04:33:05.732Z,10.90
2017-10-22T04:35:33.264Z,11.43
2017-10-22T04:38:01.168Z,10.93
2017-10-22T04:40:28.741Z,10.57
2017-10-22T04:42:56.282Z,9.90
2017-10-22T04:45:23.854Z,9.57
2017-10-22T04:47:51.392Z,10.10
2017-10-22T04:50:19.687Z,10.30
2017-10-22T04:52:47.261Z,9.57
2017-10-22T04:55:14.801Z,9.00
2017-10-22T04:57:42.381Z,9.80
2017-10-22T05:00:09.923Z,10.47
2017-10-22T05:02:37.492Z,9.87
2017-10-22T05:05:05.030Z,10.20
2017-10-22T05:07:33.544Z,9.93
2017-10-22T05:10:01.392Z,9.30
2017-10-22T05:12:28.973Z,7.83
2017-10-22T05:14:57.315Z,8.03
2017-10-22T05:17:24.909Z,8.13
2017-10-22T05:19:52.459Z,7.47
2017-10-22T05:22:20.037Z,7.30
2017-10-22T05:24:48.486Z,8.80
2017-10-22T05:27:16.050Z,8.67
2017-10-22T05:29:43.593Z,7.13
2017-10-22T05:32:11.970Z,8.17
2017-10-22T05:34:40.279Z,7.23
2017-10-22T05:37:07.813Z,8.47
2017-10-22T05:39:36.195Z,6.83
2017-10-22T05:42:05.553Z,7.90
2017-10-22T05:44:33.990Z,6.50
2017-10-22T05:47:01.569Z,6.90
2017-10-22T05:49:29.196Z,5.87
2017-10-22T05:51:56.731Z,6.80
2017-10-22T05:54:24.282Z,6.27
2017-10-22T05:56:52.424Z,6.03
2017-10-22T05:59:19.993Z,6.90
2017-10-22T06:01:47.553Z,7.23
2017-10-22T06:04:15.099Z,7.27
2017-10-22T06:06:42.630Z,6.77
2017-10-22T06:09:10.257Z,6.43
2017-10-22T06:11:37.899Z,6.33
2017-10-22T06:14:05.449Z,6.33
2017-10-22T06:16:34.085Z,6.90
2017-10-22T06:19:01.633Z,6.30
2017-10-22T06:21:29.469Z,5.80
2017-10-22T06:23:57.899Z,6.97
2017-10-22T06:26:25.520Z,5.60
2017-10-22T06:28:55.439Z,6.10
2017-10-22T06:31:23.061Z,5.53
2017-10-22T06:33:50.643Z,6.53
2017-10-22T06:36:18.177Z,6.63
2017-10-22T06:38:45.708Z,7.00
2017-10-22T06:41:13.336Z,8.00
2017-10-22T06:43:41.744Z,5.23
2017-10-22T06:46:10.220Z,5.30
2017-10-22T06:48:37.859Z,6.40
2017-10-22T06:51:05.425Z,6.50
2017-10-22T06:53:33.430Z,8.33
2017-10-22T06:56:00.996Z,5.80
2017-10-22T06:58:28.599Z,6.50
2017-10-22T07:00:56.964Z,5.37
2017-10-22T07:03:24.505Z,5.80
2017-10-22T07:05:52.275Z,3.53
2017-10-22T07:08:19.808Z,4.60
2017-10-22T07:10:47.369Z,4.70
2017-10-22T07:13:14.900Z,4.80
2017-10-22T07:15:42.487Z,5.80
2017-10-22T07:18:10.100Z,4.80
2017-10-22T07:20:38.469Z,5.23
2017-10-22T07:23:06.061Z,4.70
2017-10-22T07:25:34.505Z,5.07
2017-10-22T07:28:02.312Z,5.20
2017-10-22T07:30:30.609Z,4.33
2017-10-22T07:32:58.176Z,3.80
2017-10-22T07:35:25.700Z,4.77
2017-10-22T07:37:53.269Z,4.50
2017-10-22T07:40:21.549Z,4.90
2017-10-22T07:42:49.102Z,5.23
2017-10-22T07:45:16.639Z,4.50
2017-10-22T07:47:44.178Z,4.17
2017-10-22T07:50:12.537Z,4.72
2017-10-22T07:52:42.486Z,3.77
2017-10-22T07:55:10.925Z,4.90
2017-10-22T07:57:38.501Z,3.50
2017-10-22T08:00:06.266Z,4.30
2017-10-22T08:02:34.528Z,3.97
2017-10-22T08:05:02.265Z,3.23
2017-10-22T08:07:29.807Z,3.00
2017-10-22T08:09:59.914Z,3.43
2017-10-22T08:12:27.925Z,3.07
2017-10-22T08:14:55.460Z,3.73
2017-10-22T08:17:23.028Z,3.60
2017-10-22T08:19:50.690Z,3.47
2017-10-22T08:22:18.270Z,4.30
2017-10-22T08:24:45.813Z,3.73
2017-10-22T08:27:13.481Z,4.00
2017-10-22T08:29:42.175Z,3.13
2017-10-22T08:32:09.798Z,3.37
2017-10-22T08:34:37.341Z,2.90
2017-10-22T08:37:06.392Z,3.63
2017-10-22T08:39:34.780Z,3.47
2017-10-22T08:42:02.400Z,3.23
2017-10-22T08:44:30.709Z,3.37
2017-10-22T08:46:59.085Z,3.07
2017-10-22T08:49:26.640Z,2.77
2017-10-22T08:51:54.234Z,3.23
2017-10-22T08:54:21.773Z,4.40
2017-10-22T08:56:49.311Z,2.90
2017-10-22T08:59:16.849Z,3.23
2017-10-22T09:01:44.449Z,3.20
2017-10-22T09:04:11.972Z,3.10
2017-10-22T09:06:39.569Z,3.73
2017-10-22T09:09:07.142Z,3.37
2017-10-22T09:11:34.788Z,3.90
2017-10-22T09:14:03.223Z,3.80
2017-10-22T09:16:31.652Z,4.63
2017-10-22T09:18:59.186Z,3.27
2017-10-22T09:21:27.634Z,3.30
2017-10-22T09:23:55.987Z,4.13
2017-10-22T09:26:23.697Z,3.40
2017-10-22T09:28:51.272Z,3.13
2017-10-22T09:31:18.962Z,3.90
2017-10-22T09:33:47.644Z,3.93
2017-10-22T09:36:16.039Z,3.80
2017-10-22T09:38:43.619Z,2.97
2017-10-22T09:41:11.148Z,3.07
2017-10-22T09:43:38.682Z,2.60
2017-10-22T09:46:06.209Z,3.87
2017-10-22T09:48:34.548Z,3.10
2017-10-22T09:51:02.392Z,2.87
2017-10-22T09:53:29.971Z,2.33
2017-10-22T09:55:57.500Z,2.67
2017-10-22T09:58:25.047Z,2.70
2017-10-22T10:00:53.482Z,2.80
2017-10-22T10:03:21.041Z,2.43
2017-10-22T10:05:48.567Z,2.60
2017-10-22T10:08:16.143Z,2.47
2017-10-22T10:10:43.676Z,2.57
2017-10-22T10:13:11.220Z,2.87
2017-10-22T10:15:38.843Z,2.30
2017-10-22T10:18:06.422Z,2.00
2017-10-22T10:20:33.961Z,2.27
2017-10-22T10:23:01.509Z,2.20
2017-10-22T10:25:29.036Z,2.57
2017-10-22T10:27:57.485Z,2.30
2017-10-22T10:30:25.203Z,1.90
2017-10-22T10:32:53.052Z,2.50
2017-10-22T10:35:20.622Z,3.07
2017-10-22T10:37:49.256Z,3.30
2017-10-22T10:40:17.363Z,2.53
2017-10-22T10:42:44.976Z,2.30
2017-10-22T10:45:12.520Z,2.30
2017-10-22T10:47:40.096Z,2.90
2017-10-22T10:50:07.637Z,4.47
2017-10-22T10:52:35.208Z,2.70
2017-10-22T10:55:02.754Z,2.47
2017-10-22T10:57:31.195Z,2.40
2017-10-22T10:59:58.773Z,2.60
2017-10-22T11:02:26.996Z,2.43
2017-10-22T11:04:56.495Z,2.30
2017-10-22T11:07:24.025Z,2.53
2017-10-22T11:09:51.551Z,2.33
2017-10-22T11:12:19.800Z,2.20
2017-10-22T11:14:47.357Z,2.17
2017-10-22T11:17:15.009Z,2.37
2017-10-22T11:19:43.387Z,2.30
2017-10-22T11:22:10.929Z,3.60
2017-10-22T11:24:38.458Z,2.20
2017-10-22T11:27:05.988Z,2.10
2017-10-22T11:29:33.654Z,2.00
2017-10-22T11:32:01.184Z,2.00
2017-10-22T11:34:28.820Z,2.00
2017-10-22T11:36:56.356Z,2.97
2017-10-22T11:39:23.947Z,2.13
2017-10-22T11:41:51.543Z,2.77
2017-10-22T11:44:19.073Z,1.90
2017-10-22T11:46:46.665Z,2.47
2017-10-22T11:49:14.231Z,2.60
2017-10-22T11:51:41.769Z,2.30
2017-10-22T11:54:09.299Z,2.20
2017-10-22T11:56:36.831Z,2.13
2017-10-22T11:59:04.400Z,2.17
2017-10-22T12:01:32.209Z,2.20
2017-10-22T12:03:59.748Z,1.80
2017-10-22T12:06:29.227Z,3.00
2017-10-22T12:08:57.536Z,2.33
2017-10-22T12:11:25.968Z,2.40
2017-10-22T12:13:53.563Z,2.33
2017-10-22T12:16:21.088Z,3.57
2017-10-22T12:18:48.673Z,2.50
2017-10-22T12:21:16.206Z,2.93
2017-10-22T12:23:43.729Z,2.57
2017-10-22T12:26:11.266Z,3.33
2017-10-22T12:28:38.801Z,3.27
2017-10-22T12:31:06.444Z,2.70
2017-10-22T12:33:33.975Z,2.10
2017-10-22T12:36:01.562Z,2.20
2017-10-22T12:38:29.105Z,2.37
2017-10-22T12:40:56.667Z,1.93
2017-10-22T12:43:25.024Z,2.93
2017-10-22T12:45:52.559Z,2.33
2017-10-22T12:48:21.032Z,2.60
2017-10-22T12:50:48.571Z,2.67
2017-10-22T12:53:16.129Z,2.30
2017-10-22T12:55:43.696Z,2.30
2017-10-22T12:58:11.238Z,1.50
2017-10-22T13:00:38.770Z,2.00
2017-10-22T13:03:06.367Z,2.63
2017-10-22T13:05:33.977Z,1.83
2017-10-22T13:08:01.566Z,2.40
2017-10-22T13:10:29.102Z,2.40
2017-10-22T13:12:56.640Z,2.10
2017-10-22T13:15:24.347Z,2.07
2017-10-22T13:17:51.885Z,2.00
2017-10-22T13:20:19.422Z,2.57
2017-10-22T13:22:47.042Z,1.83
2017-10-22T13:25:14.571Z,2.10
2017-10-22T13:27:42.692Z,2.13
2017-10-22T13:30:10.221Z,2.73
2017-10-22T13:32:37.806Z,1.90
2017-10-22T13:35:05.366Z,2.10
2017-10-22T13:37:32.894Z,2.67
2017-10-22T13:40:00.571Z,1.77
2017-10-22T13:42:28.997Z,1.97
2017-10-22T13:44:57.906Z,1.93
2017-10-22T13:47:26.253Z,2.10
2017-10-22T13:49:54.578Z,2.20
2017-10-22T13:52:22.112Z,2.10
2017-10-22T13:54:49.642Z,2.57
2017-10-22T13:57:17.220Z,2.00
2017-10-22T13:59:44.754Z,3.00
2017-10-22T14:02:12.815Z,2.47
2017-10-22T14:04:40.392Z,2.20
2017-10-22T14:07:08.184Z,2.73
2017-10-22T14:09:35.929Z,2.67
2017-10-22T14:12:03.508Z,3.30
2017-10-22T14:14:31.972Z,3.03
2017-10-22T14:16:59.500Z,2.70
2017-10-22T14:19:27.030Z,3.13
2017-10-22T14:21:54.564Z,3.43
2017-10-22T14:24:23.025Z,2.70
2017-10-22T14:26:51.391Z,2.53
2017-10-22T14:29:19.892Z,2.77
2017-10-22T14:31:47.573Z,2.70
2017-10-22T14:34:15.812Z,2.67
2017-10-22T14:36:43.485Z,3.00
2017-10-22T14:39:11.545Z,2.53
2017-10-22T14:41:39.081Z,3.90
2017-10-22T14:44:06.652Z,2.60
2017-10-22T14:46:34.236Z,2.57
2017-10-22T14:49:02.551Z,3.20
2017-10-22T14:51:30.285Z,2.40
2017-10-22T14:53:58.679Z,2.78
2017-10-22T14:56:26.635Z,1.97
2017-10-22T14:58:54.984Z,2.33
2017-10-22T15:01:22.512Z,2.90
2017-10-22T15:03:50.638Z,2.57
2017-10-22T15:06:18.177Z,2.33
2017-10-22T15:08:45.708Z,1.90
2017-10-22T15:11:13.240Z,2.17
2017-10-22T15:13:40.785Z,3.50
2017-10-22T15:16:08.321Z,3.70
2017-10-22T15:18:35.885Z,2.87
2017-10-22T15:21:03.412Z,3.20
2017-10-22T15:23:30.941Z,2.80
2017-10-22T15:25:58.504Z,2.60
2017-10-22T15:28:26.043Z,2.50
2017-10-22T15:30:53.621Z,2.80
2017-10-22T15:33:21.151Z,2.77
2017-10-22T15:35:48.698Z,3.03
2017-10-22T15:38:16.238Z,2.97
2017-10-22T15:40:43.774Z,3.20
2017-10-22T15:43:11.864Z,3.00
2017-10-22T15:45:39.391Z,3.07
2017-10-22T15:48:06.926Z,3.83
2017-10-22T15:50:34.472Z,3.00
2017-10-22T15:53:03.085Z,3.37
2017-10-22T15:55:30.625Z,2.63
2017-10-22T15:57:58.153Z,2.13
2017-10-22T16:00:26.680Z,2.37
2017-10-22T16:02:54.448Z,2.47
2017-10-22T16:05:22.026Z,2.03
2017-10-22T16:07:50.334Z,2.00
2017-10-22T16:10:18.957Z,1.93
2017-10-22T16:12:47.195Z,1.83
2017-10-22T16:15:16.357Z,2.30
2017-10-22T16:17:45.373Z,2.27
2017-10-22T16:20:13.778Z,1.43
2017-10-22T16:22:41.314Z,2.03
2017-10-22T16:25:09.785Z,1.90
2017-10-22T16:27:37.318Z,1.77
2017-10-22T16:30:05.665Z,2.27
2017-10-22T16:32:33.963Z,2.07
2017-10-22T16:35:01.538Z,2.73
2017-10-22T16:37:30.029Z,1.80
2017-10-22T16:39:59.394Z,2.10
2017-10-22T16:42:27.882Z,1.60
2017-10-22T16:44:56.211Z,1.70
2017-10-22T16:47:24.663Z,1.63
2017-10-22T16:49:53.035Z,1.77
2017-10-22T16:52:21.576Z,2.10
2017-10-22T16:54:49.111Z,1.90
2017-10-22T16:57:17.592Z,2.33
2017-10-22T16:59:45.896Z,1.70
2017-10-22T17:02:13.430Z,2.00
2017-10-22T17:04:40.962Z,2.53
2017-10-22T17:07:08.542Z,2.63
2017-10-22T17:09:36.072Z,2.53
2017-10-22T17:12:04.435Z,2.40
2017-10-22T17:14:32.475Z,2.30
2017-10-22T17:17:00.040Z,2.00
2017-10-22T17:19:27.604Z,2.60
2017-10-22T17:21:55.138Z,2.37
2017-10-22T17:24:22.704Z,1.50
2017-10-22T17:26:50.263Z,2.07
2017-10-22T17:29:18.013Z,2.13
2017-10-22T17:31:45.932Z,2.03
2017-10-22T17:34:13.483Z,2.40
2017-10-22T17:36:41.013Z,2.00
2017-10-22T17:39:08.552Z,2.20
2017-10-22T17:41:36.093Z,3.20
2017-10-22T17:44:06.767Z,1.90
2017-10-22T17:46:34.294Z,2.40
2017-10-22T17:49:02.938Z,1.90
2017-10-22T17:51:30.479Z,2.03
2017-10-22T17:53:58.017Z,1.87
2017-10-22T17:56:25.692Z,2.17
2017-10-22T17:58:53.316Z,2.10
2017-10-22T18:01:20.870Z,2.10
2017-10-22T18:03:48.400Z,2.27
2017-10-22T18:06:15.937Z,2.50
2017-10-22T18:11:09.805Z,2.87
2017-10-22T18:13:37.337Z,3.50
2017-10-22T18:16:04.906Z,2.30
2017-10-22T18:18:32.436Z,2.30
2017-10-22T18:21:00.968Z,1.90
2017-10-22T18:23:28.507Z,2.50
2017-10-22T18:25:56.041Z,2.27
2017-10-22T18:28:23.581Z,2.77
2017-10-22T18:30:51.160Z,2.47
2017-10-22T18:33:18.695Z,2.80
2017-10-22T18:35:46.225Z,2.30
2017-10-22T18:38:13.773Z,2.87
2017-10-22T18:40:41.316Z,2.87
2017-10-22T18:43:08.852Z,2.97
2017-10-22T18:45:36.387Z,2.20
2017-10-22T18:48:03.957Z,2.20
2017-10-22T18:50:31.597Z,2.50
2017-10-22T18:53:00.293Z,1.93
2017-10-22T18:55:28.755Z,2.40
2017-10-22T18:57:57.153Z,1.97
2017-10-22T19:00:24.717Z,2.20
2017-10-22T19:02:52.249Z,2.27
2017-10-22T19:05:20.595Z,2.30
2017-10-22T19:07:48.920Z,1.90
2017-10-22T19:10:17.518Z,2.50
2017-10-22T19:12:45.981Z,3.00
2017-10-22T19:15:14.306Z,2.67
2017-10-22T19:17:41.847Z,2.27
2017-10-22T19:20:09.427Z,2.10
2017-10-22T19:22:37.048Z,4.10
2017-10-22T19:25:04.624Z,2.30
2017-10-22T19:27:32.164Z,2.23
2017-10-22T19:30:00.273Z,2.57
2017-10-22T19:32:27.813Z,2.23
2017-10-22T19:34:55.350Z,5.30
2017-10-22T19:37:22.892Z,2.43
2017-10-22T19:39:51.494Z,2.30
2017-10-22T19:42:19.941Z,1.90
2017-10-22T19:44:47.469Z,2.70
2017-10-22T19:47:15.004Z,2.30
2017-10-22T19:49:42.555Z,2.70
2017-10-22T19:52:10.088Z,2.47
2017-10-22T19:54:37.659Z,2.07
2017-10-22T19:57:05.953Z,2.40
2017-10-22T19:59:35.321Z,2.50
2017-10-22T20:02:02.864Z,2.80
2017-10-22T20:04:30.411Z,2.43
2017-10-22T20:06:58.679Z,2.00
2017-10-22T20:09:26.221Z,1.90
2017-10-22T20:11:54.446Z,1.93
2017-10-22T20:14:21.984Z,2.40
2017-10-22T20:16:49.520Z,1.80
2017-10-22T20:19:17.090Z,2.60
2017-10-22T20:24:24.095Z,2.67
2017-10-22T20:27:00.774Z,2.80
2017-10-22T20:29:36.219Z,2.03
2017-10-22T20:32:03.860Z,2.13
2017-10-22T20:34:32.240Z,2.40
2017-10-22T20:37:00.921Z,1.90
2017-10-22T20:39:28.673Z,1.90
2017-10-22T20:41:56.252Z,2.23
2017-10-22T20:44:23.803Z,2.33
2017-10-22T20:46:51.353Z,2.03
2017-10-22T20:49:18.913Z,2.23
2017-10-22T20:51:46.480Z,2.17
2017-10-22T20:54:14.032Z,2.33
2017-10-22T20:56:41.603Z,2.17
2017-10-22T20:59:10.278Z,2.10
2017-10-22T21:01:37.819Z,2.30
2017-10-22T21:04:05.468Z,2.50
2017-10-22T21:06:33.007Z,2.43
2017-10-22T21:09:01.712Z,2.00
2017-10-22T21:11:29.595Z,2.67
2017-10-22T21:13:57.128Z,2.10
2017-10-22T21:16:24.653Z,2.87
2017-10-22T21:18:52.207Z,2.67
2017-10-22T21:21:19.971Z,2.63
2017-10-22T21:23:48.793Z,2.80
2017-10-22T21:26:16.327Z,2.33
2017-10-22T21:28:44.664Z,2.80
2017-10-22T21:31:12.257Z,3.10
2017-10-22T21:33:39.839Z,2.40
2017-10-22T21:36:08.228Z,4.37
2017-10-22T21:38:35.756Z,2.30
2017-10-22T21:41:03.297Z,2.50
2017-10-22T21:43:31.614Z,2.93
2017-10-22T21:45:59.158Z,3.20
2017-10-22T21:48:26.688Z,2.57
2017-10-22T21:50:54.272Z,2.50
2017-10-22T21:53:21.834Z,2.23
2017-10-22T21:55:49.363Z,2.50
2017-10-22T21:58:17.038Z,1.97
2017-10-22T22:00:44.719Z,2.43
2017-10-22T22:03:12.253Z,2.27
2017-10-22T22:05:39.786Z,2.60
2017-10-22T22:08:07.318Z,3.00
2017-10-22T22:10:34.849Z,2.30
2017-10-22T22:13:02.380Z,3.13
2017-10-22T22:15:29.909Z,2.93
2017-10-22T22:17:57.441Z,2.90
2017-10-22T22:20:26.014Z,2.77
2017-10-22T22:22:53.551Z,2.13
2017-10-22T22:25:21.073Z,2.07
2017-10-22T22:27:48.604Z,3.20
2017-10-22T22:30:16.133Z,3.30
2017-10-22T22:32:43.693Z,2.67
2017-10-22T22:35:11.225Z,2.40
2017-10-22T22:37:38.796Z,2.87
2017-10-22T22:40:06.327Z,2.97
2017-10-22T22:42:33.860Z,3.50
2017-10-22T22:45:01.392Z,2.70
2017-10-22T22:47:28.936Z,2.53
2017-10-22T22:49:56.522Z,3.53
2017-10-22T22:52:24.048Z,3.13
2017-10-22T22:54:51.589Z,3.33
2017-10-22T22:57:19.141Z,3.70
2017-10-22T22:59:46.684Z,3.67
2017-10-22T23:02:14.309Z,3.30
2017-10-22T23:04:41.838Z,3.10
2017-10-22T23:07:09.389Z,3.20
2017-10-22T23:09:37.529Z,3.40
2017-10-22T23:12:05.609Z,3.60
2017-10-22T23:14:33.136Z,3.00
2017-10-22T23:17:00.669Z,3.00
2017-10-22T23:19:28.198Z,3.53
2017-10-22T23:21:56.537Z,3.10
2017-10-22T23:24:24.073Z,3.53
2017-10-22T23:26:52.396Z,3.80
2017-10-22T23:29:19.934Z,4.20
2017-10-22T23:31:47.473Z,3.23
2017-10-22T23:34:15.000Z,3.20
2017-10-22T23:36:43.316Z,3.43
2017-10-22T23:39:11.649Z,3.43
2017-10-22T23:41:39.188Z,3.70
2017-10-22T23:44:07.721Z,2.87
2017-10-22T23:46:35.853Z,4.20
2017-10-22T23:49:04.163Z,3.80
2017-10-22T23:51:31.686Z,4.07
2017-10-22T23:54:00.122Z,5.37
2017-10-22T23:56:27.657Z,4.30
2017-10-22T23:58:56.138Z,4.00
